createdAt,value
2023-04-22T00:01:00.778Z,7.47
2023-04-22T00:03:28.448Z,7.42
2023-04-22T00:05:55.453Z,7.35
2023-04-22T00:08:22.300Z,7.30
2023-04-22T00:10:49.416Z,7.26
2023-04-22T00:13:16.425Z,7.21
2023-04-22T00:15:43.241Z,7.17
2023-04-22T00:18:13.376Z,7.12
2023-04-22T00:20:43.178Z,7.07
2023-04-22T00:23:11.693Z,7.03
2023-04-22T00:25:39.388Z,6.99
2023-04-22T00:28:06.606Z,6.94
2023-04-22T00:30:34.826Z,6.92
2023-04-22T00:33:01.966Z,6.89
2023-04-22T00:35:29.956Z,6.86
2023-04-22T00:37:56.786Z,6.83
2023-04-22T00:40:23.643Z,6.82
2023-04-22T00:42:51.056Z,6.80
2023-04-22T00:45:18.702Z,6.79
2023-04-22T00:47:46.328Z,6.77
2023-04-22T00:50:13.256Z,6.75
2023-04-22T00:52:40.227Z,6.74
2023-04-22T00:55:07.841Z,6.74
2023-04-22T00:57:35.208Z,6.74
2023-04-22T01:00:04.203Z,6.74
2023-04-22T01:02:31.488Z,6.74
2023-04-22T01:04:58.711Z,6.74
2023-04-22T01:07:26.233Z,6.74
2023-04-22T01:09:53.371Z,6.73
2023-04-22T01:12:20.346Z,6.71
2023-04-22T01:14:47.305Z,6.66
2023-04-22T01:17:15.649Z,6.62
2023-04-22T01:19:42.961Z,6.58
2023-04-22T01:22:10.908Z,6.55
2023-04-22T01:24:37.944Z,6.52
2023-04-22T01:27:04.998Z,6.48
2023-04-22T01:29:33.107Z,6.44
2023-04-22T01:32:01.433Z,6.39
2023-04-22T01:34:30.092Z,6.36
2023-04-22T01:36:57.062Z,6.32
2023-04-22T01:39:23.839Z,6.30
2023-04-22T01:41:50.726Z,6.29
2023-04-22T01:44:19.109Z,6.27
2023-04-22T01:46:46.057Z,6.24
2023-04-22T01:49:12.926Z,6.22
2023-04-22T01:51:39.840Z,6.19
2023-04-22T01:54:06.628Z,6.16
2023-04-22T01:56:33.809Z,6.12
2023-04-22T01:59:00.680Z,6.10
2023-04-22T02:01:31.647Z,6.07
2023-04-22T02:03:58.759Z,6.05
2023-04-22T02:06:26.937Z,6.04
2023-04-22T02:08:54.136Z,6.03
2023-04-22T02:11:21.547Z,6.01
2023-04-22T02:13:49.466Z,5.97
2023-04-22T02:16:19.217Z,5.94
2023-04-22T02:18:46.317Z,5.91
2023-04-22T02:21:12.977Z,5.90
2023-04-22T02:23:40.948Z,5.91
2023-04-22T02:26:07.858Z,5.88
2023-04-22T02:28:35.528Z,5.85
2023-04-22T02:31:02.589Z,5.84
2023-04-22T02:33:30.258Z,5.83
2023-04-22T02:35:57.017Z,5.82
2023-04-22T02:38:23.688Z,5.79
2023-04-22T02:40:50.512Z,5.78
2023-04-22T02:43:17.977Z,5.74
2023-04-22T02:45:44.744Z,5.70
2023-04-22T02:48:11.886Z,5.67
2023-04-22T02:50:40.076Z,5.63
2023-04-22T02:53:08.168Z,5.61
2023-04-22T02:55:35.187Z,5.60
2023-04-22T02:58:02.326Z,5.60
2023-04-22T03:00:29.181Z,5.59
2023-04-22T03:02:56.241Z,5.60
2023-04-22T03:05:30.065Z,5.60
2023-04-22T03:07:57.064Z,5.62
2023-04-22T03:10:23.720Z,5.64
2023-04-22T03:12:50.900Z,5.69
2023-04-22T03:15:21.215Z,5.73
2023-04-22T03:17:49.040Z,5.77
2023-04-22T03:20:16.463Z,5.80
2023-04-22T03:22:43.293Z,5.82
2023-04-22T03:25:10.966Z,5.85
2023-04-22T03:27:38.679Z,5.89
2023-04-22T03:30:06.979Z,5.93
2023-04-22T03:32:34.456Z,5.97
2023-04-22T03:35:17.843Z,6.00
2023-04-22T03:37:46.119Z,6.05
2023-04-22T03:40:14.046Z,6.11
2023-04-22T03:42:41.592Z,6.16
2023-04-22T03:45:09.180Z,6.24
2023-04-22T03:47:38.340Z,6.33
2023-04-22T03:50:12.391Z,6.44
2023-04-22T03:52:39.179Z,6.52
2023-04-22T03:55:06.199Z,6.58
2023-04-22T03:57:33.624Z,6.65
2023-04-22T04:00:00.642Z,6.73
2023-04-22T04:02:27.722Z,6.80
2023-04-22T04:04:56.098Z,6.87
2023-04-22T04:07:23.276Z,6.96
2023-04-22T04:09:50.270Z,7.05
2023-04-22T04:12:17.542Z,7.12
2023-04-22T04:14:44.912Z,7.17
2023-04-22T04:17:14.740Z,7.22
2023-04-22T04:19:42.219Z,7.29
2023-04-22T04:22:10.134Z,7.38
2023-04-22T04:24:42.612Z,7.47
2023-04-22T04:27:15.686Z,7.56
2023-04-22T04:29:47.324Z,7.64
2023-04-22T04:32:17.720Z,7.71
2023-04-22T04:34:45.278Z,7.78
2023-04-22T04:37:12.643Z,7.84
2023-04-22T04:39:49.397Z,7.91
2023-04-22T04:42:16.485Z,7.98
2023-04-22T04:44:50.989Z,8.06
2023-04-22T04:47:19.598Z,8.13
2023-04-22T04:49:46.679Z,8.20
2023-04-22T04:52:14.736Z,8.27
2023-04-22T04:54:41.908Z,8.34
2023-04-22T04:57:09.668Z,8.45
2023-04-22T04:59:37.390Z,8.57
2023-04-22T05:02:06.265Z,8.67
2023-04-22T05:04:33.909Z,8.77
2023-04-22T05:07:01.100Z,8.89
2023-04-22T05:09:29.302Z,9.04
2023-04-22T05:11:56.581Z,9.19
2023-04-22T05:14:25.982Z,9.33
2023-04-22T05:16:53.020Z,9.49
2023-04-22T05:19:20.750Z,9.63
2023-04-22T05:21:47.728Z,9.75
2023-04-22T05:24:14.949Z,9.87
2023-04-22T05:26:41.983Z,10.01
2023-04-22T05:29:14.017Z,10.14
2023-04-22T05:31:41.190Z,10.27
2023-04-22T05:34:08.103Z,10.40
2023-04-22T05:36:35.257Z,10.51
2023-04-22T05:39:02.231Z,10.63
2023-04-22T05:41:30.119Z,10.76
2023-04-22T05:43:57.683Z,10.95
2023-04-22T05:46:28.445Z,11.12
2023-04-22T05:48:56.209Z,11.27
2023-04-22T05:51:43.214Z,11.45
2023-04-22T05:54:11.676Z,11.62
2023-04-22T05:56:38.611Z,11.79
2023-04-22T05:59:05.804Z,11.97
2023-04-22T06:01:32.727Z,12.13
2023-04-22T06:04:06.206Z,12.31
2023-04-22T06:06:35.200Z,12.49
2023-04-22T06:09:02.068Z,12.70
2023-04-22T06:11:29.060Z,12.89
2023-04-22T06:13:56.165Z,13.02
2023-04-22T06:16:23.287Z,13.12
2023-04-22T06:18:50.398Z,13.28
2023-04-22T06:21:17.357Z,13.45
2023-04-22T06:23:44.221Z,13.61
2023-04-22T06:26:11.775Z,13.77
2023-04-22T06:28:39.296Z,13.93
2023-04-22T06:31:10.604Z,14.09
2023-04-22T06:33:37.895Z,14.23
2023-04-22T06:36:05.351Z,14.37
2023-04-22T06:38:32.811Z,14.49
2023-04-22T06:41:18.663Z,14.61
2023-04-22T06:43:49.325Z,14.65
2023-04-22T06:46:19.362Z,14.70
2023-04-22T06:49:07.516Z,14.73
2023-04-22T06:52:02.872Z,14.76
2023-04-22T06:54:31.389Z,14.89
2023-04-22T06:56:58.475Z,15.02
2023-04-22T06:59:25.328Z,15.14
2023-04-22T07:01:52.357Z,15.24
2023-04-22T07:04:19.529Z,15.34
2023-04-22T07:06:46.578Z,15.41
2023-04-22T07:09:13.343Z,15.51
2023-04-22T07:11:40.262Z,15.57
2023-04-22T07:14:14.857Z,15.63
2023-04-22T07:16:41.679Z,15.75
2023-04-22T07:19:08.704Z,15.80
2023-04-22T07:21:36.143Z,15.82
2023-04-22T07:24:03.044Z,15.84
2023-04-22T07:26:31.429Z,15.89
2023-04-22T07:28:58.414Z,15.98
2023-04-22T07:31:25.366Z,16.05
2023-04-22T07:33:52.484Z,16.09
2023-04-22T07:36:19.295Z,16.12
2023-04-22T07:38:46.253Z,16.19
2023-04-22T07:41:13.449Z,16.26
2023-04-22T07:43:40.218Z,16.30
2023-04-22T07:46:06.956Z,16.32
2023-04-22T07:48:33.949Z,16.37
2023-04-22T07:51:00.757Z,16.42
2023-04-22T07:53:27.640Z,16.50
2023-04-22T07:55:55.282Z,16.55
2023-04-22T07:58:22.159Z,16.64
2023-04-22T08:00:49.200Z,16.74
2023-04-22T08:03:16.568Z,16.85
2023-04-22T08:05:43.477Z,16.96
2023-04-22T08:08:10.225Z,17.02
2023-04-22T08:10:37.733Z,17.05
2023-04-22T08:13:05.560Z,17.09
2023-04-22T08:15:32.472Z,17.17
2023-04-22T08:17:59.241Z,17.32
2023-04-22T08:20:26.239Z,17.47
2023-04-22T08:22:57.621Z,17.59
2023-04-22T08:25:24.583Z,17.70
2023-04-22T08:27:51.862Z,17.78
2023-04-22T08:30:18.687Z,17.81
2023-04-22T08:32:46.089Z,17.87
2023-04-22T08:35:12.882Z,18.01
2023-04-22T08:37:40.213Z,18.11
2023-04-22T08:40:08.121Z,18.20
2023-04-22T08:42:34.937Z,18.32
2023-04-22T08:45:02.622Z,18.50
2023-04-22T08:47:32.196Z,18.73
2023-04-22T08:50:00.709Z,18.89
2023-04-22T08:52:27.295Z,19.08
2023-04-22T08:54:54.051Z,19.22
2023-04-22T08:57:20.795Z,19.32
2023-04-22T08:59:47.923Z,19.43
2023-04-22T09:02:20.889Z,19.59
2023-04-22T09:04:49.293Z,19.74
2023-04-22T09:07:19.120Z,19.82
2023-04-22T09:09:46.293Z,19.93
2023-04-22T09:12:12.974Z,20.05
2023-04-22T09:14:40.065Z,20.16
2023-04-22T09:17:06.893Z,20.22
2023-04-22T09:19:34.617Z,20.25
2023-04-22T09:22:01.269Z,20.33
2023-04-22T09:24:27.920Z,20.36
2023-04-22T09:27:00.385Z,20.39
2023-04-22T09:29:31.192Z,20.49
2023-04-22T09:31:57.826Z,20.68
2023-04-22T09:34:24.724Z,20.77
2023-04-22T09:36:51.554Z,20.78
2023-04-22T09:39:18.391Z,20.83
2023-04-22T09:41:45.075Z,20.90
2023-04-22T09:44:17.466Z,21.05
2023-04-22T09:46:44.398Z,21.17
2023-04-22T09:49:11.140Z,21.15
2023-04-22T09:51:40.088Z,20.99
2023-04-22T09:54:10.793Z,20.93
2023-04-22T09:56:51.262Z,20.91
2023-04-22T09:59:22.312Z,20.92
2023-04-22T10:01:53.087Z,20.93
2023-04-22T10:04:24.384Z,20.84
2023-04-22T10:06:54.287Z,20.78
2023-04-22T10:09:22.558Z,20.69
2023-04-22T10:11:50.784Z,20.59
2023-04-22T10:14:17.741Z,20.55
2023-04-22T10:16:46.288Z,20.52
2023-04-22T10:19:23.344Z,20.50
2023-04-22T10:21:55.811Z,20.50
2023-04-22T10:24:25.125Z,20.44
2023-04-22T10:26:59.405Z,20.45
2023-04-22T10:29:27.265Z,20.49
2023-04-22T10:32:23.291Z,20.41
2023-04-22T10:34:50.115Z,20.30
2023-04-22T10:37:20.179Z,20.23
2023-04-22T10:40:07.437Z,20.14
2023-04-22T10:42:35.854Z,19.98
2023-04-22T10:45:03.831Z,19.81
2023-04-22T10:47:37.783Z,19.67
2023-04-22T10:50:14.041Z,19.52
2023-04-22T10:52:41.662Z,19.42
2023-04-22T10:55:08.366Z,19.46
2023-04-22T10:57:42.723Z,19.43
2023-04-22T11:00:23.361Z,19.31
2023-04-22T11:02:53.941Z,19.17
2023-04-22T11:05:25.879Z,19.12
2023-04-22T11:07:55.181Z,19.04
2023-04-22T11:10:44.436Z,19.02
2023-04-22T11:13:16.300Z,18.99
2023-04-22T11:15:45.009Z,18.98
2023-04-22T11:18:17.814Z,19.00
2023-04-22T11:20:44.682Z,19.08
2023-04-22T11:23:11.503Z,19.14
2023-04-22T11:25:38.311Z,19.10
2023-04-22T11:28:05.079Z,18.98
2023-04-22T11:30:31.891Z,18.99
2023-04-22T11:33:00.157Z,19.02
2023-04-22T11:35:31.016Z,19.15
2023-04-22T11:38:03.473Z,19.34
2023-04-22T11:40:46.165Z,19.52
2023-04-22T11:43:14.193Z,19.57
2023-04-22T11:45:40.982Z,19.59
2023-04-22T11:48:08.892Z,19.67
2023-04-22T11:50:37.678Z,19.63
2023-04-22T11:53:13.706Z,19.49
2023-04-22T11:55:40.551Z,19.34
2023-04-22T11:58:08.936Z,19.33
2023-04-22T12:00:37.312Z,19.43
2023-04-22T12:03:14.718Z,19.57
2023-04-22T12:05:42.902Z,19.72
2023-04-22T12:08:13.812Z,19.84
2023-04-22T12:10:47.920Z,19.89
2023-04-22T12:13:31.352Z,19.75
2023-04-22T12:15:59.695Z,19.46
2023-04-22T12:18:30.274Z,19.25
2023-04-22T12:21:06.192Z,19.09
2023-04-22T12:23:45.670Z,18.90
2023-04-22T12:26:12.631Z,18.75
2023-04-22T12:28:39.615Z,18.61
2023-04-22T12:31:06.736Z,18.49
2023-04-22T12:33:34.004Z,18.39
2023-04-22T12:36:00.824Z,18.22
2023-04-22T12:38:27.890Z,18.06
2023-04-22T12:40:54.666Z,17.99
2023-04-22T12:43:21.752Z,17.94
2023-04-22T12:45:49.279Z,17.87
2023-04-22T12:48:16.555Z,17.78
2023-04-22T12:50:43.700Z,17.72
2023-04-22T12:53:10.699Z,17.74
2023-04-22T12:55:37.565Z,17.73
2023-04-22T12:58:04.417Z,17.79
2023-04-22T13:00:31.732Z,17.89
2023-04-22T13:02:58.623Z,17.89
2023-04-22T13:05:25.393Z,17.85
2023-04-22T13:08:05.687Z,17.82
2023-04-22T13:10:33.771Z,17.81
2023-04-22T13:13:15.834Z,17.75
2023-04-22T13:15:44.699Z,17.68
2023-04-22T13:18:11.488Z,17.57
2023-04-22T13:20:39.509Z,17.50
2023-04-22T13:23:07.614Z,17.51
2023-04-22T13:25:35.568Z,17.55
2023-04-22T13:28:02.863Z,17.60
2023-04-22T13:30:29.847Z,17.64
2023-04-22T13:32:56.684Z,17.65
2023-04-22T13:35:23.701Z,17.64
2023-04-22T13:37:50.536Z,17.61
2023-04-22T13:40:17.164Z,17.56
2023-04-22T13:42:44.064Z,17.52
2023-04-22T13:45:10.682Z,17.52
2023-04-22T13:47:38.262Z,17.59
2023-04-22T13:50:05.789Z,17.62
2023-04-22T13:52:33.428Z,17.58
2023-04-22T13:55:00.383Z,17.50
2023-04-22T13:57:27.262Z,17.44
2023-04-22T13:59:53.998Z,17.43
2023-04-22T14:02:20.778Z,17.41
2023-04-22T14:04:47.574Z,17.46
2023-04-22T14:07:14.231Z,17.46
2023-04-22T14:09:41.238Z,17.47
2023-04-22T14:12:08.426Z,17.50
2023-04-22T14:14:35.305Z,17.49
2023-04-22T14:17:02.177Z,17.47
2023-04-22T14:19:29.816Z,17.46
2023-04-22T14:21:56.666Z,17.42
2023-04-22T14:24:23.722Z,17.40
2023-04-22T14:26:51.728Z,17.35
2023-04-22T14:29:18.517Z,17.25
2023-04-22T14:31:45.158Z,17.14
2023-04-22T14:34:11.872Z,17.05
2023-04-22T14:36:38.709Z,16.98
2023-04-22T14:39:05.601Z,16.96
2023-04-22T14:41:32.298Z,16.94
2023-04-22T14:43:59.127Z,16.93
2023-04-22T14:46:25.888Z,16.98
2023-04-22T14:48:52.711Z,17.00
2023-04-22T14:51:19.328Z,17.00
2023-04-22T14:53:45.987Z,17.01
2023-04-22T14:56:12.871Z,17.00
2023-04-22T14:58:39.645Z,16.96
2023-04-22T15:01:07.500Z,16.91
2023-04-22T15:03:36.001Z,16.84
2023-04-22T15:06:03.406Z,16.82
2023-04-22T15:08:30.365Z,16.82
2023-04-22T15:10:59.086Z,16.84
2023-04-22T15:13:26.535Z,16.85
2023-04-22T15:15:53.329Z,16.83
2023-04-22T15:18:20.077Z,16.82
2023-04-22T15:20:46.862Z,16.83
2023-04-22T15:23:14.100Z,16.85
2023-04-22T15:25:41.045Z,16.83
2023-04-22T15:28:07.895Z,16.77
2023-04-22T15:30:35.572Z,16.71
2023-04-22T15:33:04.630Z,16.65
2023-04-22T15:35:31.539Z,16.58
2023-04-22T15:37:58.253Z,16.54
2023-04-22T15:40:25.305Z,16.49
2023-04-22T15:42:51.918Z,16.43
2023-04-22T15:45:19.222Z,16.37
2023-04-22T15:47:46.039Z,16.33
2023-04-22T15:50:12.873Z,16.29
2023-04-22T15:52:39.694Z,16.24
2023-04-22T15:55:07.204Z,16.15
2023-04-22T15:57:34.254Z,16.10
2023-04-22T16:00:11.845Z,16.07
2023-04-22T16:02:43.466Z,16.02
2023-04-22T16:05:13.783Z,16.00
2023-04-22T16:07:40.795Z,15.96
2023-04-22T16:10:08.533Z,15.91
2023-04-22T16:12:35.862Z,15.88
2023-04-22T16:15:02.764Z,15.85
2023-04-22T16:17:29.866Z,15.83
2023-04-22T16:19:56.724Z,15.76
2023-04-22T16:22:23.675Z,15.69
2023-04-22T16:24:50.534Z,15.59
2023-04-22T16:27:18.566Z,15.49
2023-04-22T16:29:45.449Z,15.41
2023-04-22T16:32:12.371Z,15.33
2023-04-22T16:34:39.171Z,15.27
2023-04-22T16:37:06.290Z,15.22
2023-04-22T16:39:33.283Z,15.17
2023-04-22T16:42:01.665Z,15.11
2023-04-22T16:44:28.474Z,15.07
2023-04-22T16:46:55.294Z,15.02
2023-04-22T16:49:23.642Z,14.98
2023-04-22T16:51:50.438Z,14.92
2023-04-22T16:54:17.005Z,14.85
2023-04-22T16:56:43.573Z,14.80
2023-04-22T16:59:10.486Z,14.75
2023-04-22T17:01:37.414Z,14.70
2023-04-22T17:04:04.110Z,14.65
2023-04-22T17:06:31.912Z,14.61
2023-04-22T17:08:59.406Z,14.57
2023-04-22T17:11:26.150Z,14.52
2023-04-22T17:13:53.128Z,14.48
2023-04-22T17:16:20.431Z,14.45
2023-04-22T17:18:47.299Z,14.41
2023-04-22T17:21:14.335Z,14.39
2023-04-22T17:23:41.031Z,14.35
2023-04-22T17:26:08.001Z,14.33
2023-04-22T17:28:34.939Z,14.30
2023-04-22T17:31:03.218Z,14.27
2023-04-22T17:33:30.732Z,14.26
2023-04-22T17:35:57.473Z,14.24
2023-04-22T17:38:24.234Z,14.22
2023-04-22T17:40:51.018Z,14.20
2023-04-22T17:43:18.432Z,14.17
2023-04-22T17:45:45.358Z,14.15
2023-04-22T17:48:12.148Z,14.12
2023-04-22T17:50:39.111Z,14.10
2023-04-22T17:53:05.912Z,14.07
2023-04-22T17:55:34.693Z,14.05
2023-04-22T17:58:02.208Z,14.04
2023-04-22T18:00:29.658Z,14.03
2023-04-22T18:02:56.359Z,14.01
2023-04-22T18:05:23.176Z,14.00
2023-04-22T18:07:50.085Z,14.00
2023-04-22T18:10:16.824Z,13.98
2023-04-22T18:12:43.457Z,13.96
2023-04-22T18:15:10.124Z,13.96
2023-04-22T18:17:37.386Z,13.96
2023-04-22T18:20:16.665Z,13.95
2023-04-22T18:22:48.171Z,13.92
2023-04-22T18:25:15.409Z,13.91
2023-04-22T18:27:42.450Z,13.90
2023-04-22T18:30:09.464Z,13.90
2023-04-22T18:32:36.770Z,13.89
2023-04-22T18:35:04.080Z,13.88
2023-04-22T18:37:33.693Z,13.86
2023-04-22T18:40:00.433Z,13.83
2023-04-22T18:42:27.066Z,13.81
2023-04-22T18:44:53.948Z,13.79
2023-04-22T18:47:20.849Z,13.77
2023-04-22T18:49:47.647Z,13.73
2023-04-22T18:52:15.751Z,13.69
2023-04-22T18:54:42.844Z,13.65
2023-04-22T18:57:10.432Z,13.62
2023-04-22T18:59:37.334Z,13.60
2023-04-22T19:02:04.389Z,13.58
2023-04-22T19:04:31.394Z,13.56
2023-04-22T19:06:58.592Z,13.53
2023-04-22T19:09:25.412Z,13.50
2023-04-22T19:11:52.410Z,13.48
2023-04-22T19:14:19.041Z,13.45
2023-04-22T19:16:45.772Z,13.42
2023-04-22T19:19:12.292Z,13.39
2023-04-22T19:21:38.979Z,13.35
2023-04-22T19:24:06.074Z,13.32
2023-04-22T19:26:33.012Z,13.29
2023-04-22T19:28:59.874Z,13.25
2023-04-22T19:31:30.238Z,13.21
2023-04-22T19:33:57.339Z,13.20
2023-04-22T19:36:24.091Z,13.18
2023-04-22T19:38:50.970Z,13.16
2023-04-22T19:41:17.623Z,13.15
2023-04-22T19:43:44.868Z,13.13
2023-04-22T19:46:11.699Z,13.10
2023-04-22T19:48:38.835Z,13.07
2023-04-22T19:51:06.233Z,13.05
2023-04-22T19:53:33.285Z,13.04
2023-04-22T19:56:00.270Z,13.01
2023-04-22T19:58:27.776Z,12.98
2023-04-22T20:00:54.973Z,12.93
2023-04-22T20:03:22.374Z,12.89
2023-04-22T20:05:49.746Z,12.84
2023-04-22T20:08:19.180Z,12.81
2023-04-22T20:10:48.742Z,12.78
2023-04-22T20:13:16.380Z,12.78
2023-04-22T20:15:44.023Z,12.77
2023-04-22T20:18:10.772Z,12.75
2023-04-22T20:20:45.822Z,12.71
2023-04-22T20:23:12.950Z,12.70
2023-04-22T20:25:42.032Z,12.69
2023-04-22T20:28:10.187Z,12.68
2023-04-22T20:30:37.768Z,12.67
2023-04-22T20:33:04.793Z,12.63
2023-04-22T20:35:31.983Z,12.61
2023-04-22T20:37:58.985Z,12.60
2023-04-22T20:40:25.736Z,12.58
2023-04-22T20:42:52.428Z,12.57
2023-04-22T20:45:19.756Z,12.53
2023-04-22T20:47:46.566Z,12.48
2023-04-22T20:50:13.358Z,12.45
2023-04-22T20:52:40.231Z,12.43
2023-04-22T20:55:07.242Z,12.42
2023-04-22T20:57:34.726Z,12.42
2023-04-22T21:00:01.577Z,12.41
2023-04-22T21:02:28.549Z,12.40
2023-04-22T21:04:56.940Z,12.38
2023-04-22T21:07:24.406Z,12.36
2023-04-22T21:09:51.307Z,12.33
2023-04-22T21:12:18.822Z,12.31
2023-04-22T21:14:46.269Z,12.30
2023-04-22T21:17:29.307Z,12.28
2023-04-22T21:19:57.515Z,12.28
2023-04-22T21:22:24.502Z,12.28
2023-04-22T21:24:51.684Z,12.27
2023-04-22T21:27:19.646Z,12.26
2023-04-22T21:29:47.957Z,12.25
2023-04-22T21:32:15.124Z,12.25
2023-04-22T21:34:42.341Z,12.24
2023-04-22T21:37:09.581Z,12.23
2023-04-22T21:39:36.325Z,12.21
2023-04-22T21:42:06.952Z,12.20
2023-04-22T21:44:35.354Z,12.17
2023-04-22T21:47:02.302Z,12.14
2023-04-22T21:49:29.152Z,12.12
2023-04-22T21:51:55.964Z,12.11
2023-04-22T21:54:22.721Z,12.09
2023-04-22T21:56:50.184Z,12.08
2023-04-22T21:59:16.889Z,12.05
2023-04-22T22:01:43.622Z,12.03
2023-04-22T22:06:37.765Z,11.96
2023-04-22T22:09:04.560Z,11.89
2023-04-22T22:11:31.646Z,11.84
2023-04-22T22:13:58.610Z,11.82
2023-04-22T22:16:25.298Z,11.80
2023-04-22T22:18:52.130Z,11.80
2023-04-22T22:21:18.859Z,11.78
2023-04-22T22:23:45.574Z,11.74
2023-04-22T22:26:12.303Z,11.72
2023-04-22T22:28:39.072Z,11.71
2023-04-22T22:31:06.312Z,11.70
2023-04-22T22:33:33.425Z,11.68
2023-04-22T22:36:00.266Z,11.66
2023-04-22T22:38:26.982Z,11.65
2023-04-22T22:40:53.670Z,11.61
2023-04-22T22:43:20.313Z,11.57
2023-04-22T22:45:47.071Z,11.53
2023-04-22T22:48:13.751Z,11.49
2023-04-22T22:50:40.508Z,11.46
2023-04-22T22:53:07.400Z,11.43
2023-04-22T22:55:34.575Z,11.40
2023-04-22T22:58:01.245Z,11.36
2023-04-22T23:00:28.526Z,11.32
2023-04-22T23:02:55.622Z,11.28
2023-04-22T23:05:22.580Z,11.26
2023-04-22T23:07:49.307Z,11.24
2023-04-22T23:10:16.268Z,11.22
2023-04-22T23:12:43.028Z,11.19
2023-04-22T23:15:10.370Z,11.17
2023-04-22T23:17:37.421Z,11.14
2023-04-22T23:20:07.572Z,11.12
2023-04-22T23:22:35.663Z,11.10
2023-04-22T23:25:02.558Z,11.07
2023-04-22T23:27:29.474Z,11.03
2023-04-22T23:29:56.382Z,10.96
2023-04-22T23:32:25.941Z,10.91
2023-04-22T23:34:52.993Z,10.87
2023-04-22T23:37:20.881Z,10.83
2023-04-22T23:39:47.506Z,10.80
2023-04-22T23:42:14.100Z,10.78
2023-04-22T23:44:41.091Z,10.76
2023-04-22T23:47:08.023Z,10.74
2023-04-22T23:49:34.959Z,10.71
2023-04-22T23:52:01.738Z,10.67
2023-04-22T23:54:29.584Z,10.63
2023-04-22T23:56:57.425Z,10.61
2023-04-22T23:59:24.365Z,10.57
